sensor_id;sensor_type;location;lat;lon;timestamp;P1;durP1;ratioP1;P2;durP2;ratioP2
6406;SDS011;3236;51.022;6.818;2023-03-22T00:01:16;8.98;;;5.82;;
6406;SDS011;3236;51.022;6.818;2023-03-22T00:03:45;14.10;;;6.72;;
6406;SDS011;3236;51.022;6.818;2023-03-22T00:06:16;14.55;;;7.07;;
6406;SDS011;3236;51.022;6.818;2023-03-22T00:08:44;9.55;;;5.60;;
6406;SDS011;3236;51.022;6.818;2023-03-22T00:11:17;12.27;;;6.63;;
6406;SDS011;3236;51.022;6.818;2023-03-22T00:13:45;12.35;;;6.85;;
6406;SDS011;3236;51.022;6.818;2023-03-22T00:16:19;10.77;;;6.82;;
6406;SDS011;3236;51.022;6.818;2023-03-22T00:18:47;12.07;;;7.30;;
6406;SDS011;3236;51.022;6.818;2023-03-22T00:21:14;12.38;;;7.55;;
6406;SDS011;3236;51.022;6.818;2023-03-22T00:23:43;13.13;;;7.07;;
6406;SDS011;3236;51.022;6.818;2023-03-22T00:26:11;13.90;;;7.85;;
6406;SDS011;3236;51.022;6.818;2023-03-22T00:28:39;16.17;;;8.30;;
6406;SDS011;3236;51.022;6.818;2023-03-22T00:31:06;12.82;;;7.90;;
6406;SDS011;3236;51.022;6.818;2023-03-22T00:33:37;19.95;;;8.27;;
6406;SDS011;3236;51.022;6.818;2023-03-22T00:36:05;16.08;;;8.65;;
6406;SDS011;3236;51.022;6.818;2023-03-22T00:38:38;13.48;;;7.97;;
6406;SDS011;3236;51.022;6.818;2023-03-22T00:41:09;17.80;;;8.32;;
6406;SDS011;3236;51.022;6.818;2023-03-22T00:43:44;13.27;;;8.60;;
6406;SDS011;3236;51.022;6.818;2023-03-22T00:46:12;15.07;;;8.27;;
6406;SDS011;3236;51.022;6.818;2023-03-22T00:48:40;16.30;;;9.40;;
6406;SDS011;3236;51.022;6.818;2023-03-22T00:51:10;18.88;;;8.77;;
6406;SDS011;3236;51.022;6.818;2023-03-22T00:53:40;16.63;;;8.50;;
6406;SDS011;3236;51.022;6.818;2023-03-22T00:56:08;19.77;;;8.98;;
6406;SDS011;3236;51.022;6.818;2023-03-22T00:58:37;17.95;;;9.82;;
6406;SDS011;3236;51.022;6.818;2023-03-22T01:01:05;17.10;;;9.77;;
6406;SDS011;3236;51.022;6.818;2023-03-22T01:03:39;20.10;;;8.98;;
6406;SDS011;3236;51.022;6.818;2023-03-22T01:06:07;17.98;;;9.50;;
6406;SDS011;3236;51.022;6.818;2023-03-22T01:08:36;17.48;;;9.90;;
6406;SDS011;3236;51.022;6.818;2023-03-22T01:11:05;24.60;;;10.18;;
6406;SDS011;3236;51.022;6.818;2023-03-22T01:13:34;16.85;;;9.93;;
6406;SDS011;3236;51.022;6.818;2023-03-22T01:16:02;21.90;;;8.85;;
6406;SDS011;3236;51.022;6.818;2023-03-22T01:18:30;15.88;;;8.82;;
6406;SDS011;3236;51.022;6.818;2023-03-22T01:20:57;16.02;;;9.55;;
6406;SDS011;3236;51.022;6.818;2023-03-22T01:23:25;19.30;;;9.65;;
6406;SDS011;3236;51.022;6.818;2023-03-22T01:25:52;16.25;;;9.82;;
6406;SDS011;3236;51.022;6.818;2023-03-22T01:28:21;16.30;;;9.10;;
6406;SDS011;3236;51.022;6.818;2023-03-22T01:30:49;16.25;;;9.27;;
6406;SDS011;3236;51.022;6.818;2023-03-22T01:33:16;20.88;;;9.25;;
6406;SDS011;3236;51.022;6.818;2023-03-22T01:35:43;20.85;;;10.15;;
6406;SDS011;3236;51.022;6.818;2023-03-22T01:38:11;16.73;;;10.15;;
6406;SDS011;3236;51.022;6.818;2023-03-22T01:40:38;15.02;;;9.52;;
6406;SDS011;3236;51.022;6.818;2023-03-22T01:43:09;17.73;;;9.93;;
6406;SDS011;3236;51.022;6.818;2023-03-22T01:45:41;13.15;;;9.23;;
6406;SDS011;3236;51.022;6.818;2023-03-22T01:48:17;22.95;;;11.15;;
6406;SDS011;3236;51.022;6.818;2023-03-22T01:50:55;18.48;;;10.55;;
6406;SDS011;3236;51.022;6.818;2023-03-22T01:53:36;15.15;;;9.68;;
6406;SDS011;3236;51.022;6.818;2023-03-22T01:56:07;16.30;;;9.65;;
6406;SDS011;3236;51.022;6.818;2023-03-22T01:58:35;15.10;;;9.57;;
6406;SDS011;3236;51.022;6.818;2023-03-22T02:01:08;17.15;;;10.15;;
6406;SDS011;3236;51.022;6.818;2023-03-22T02:03:37;17.75;;;10.10;;
6406;SDS011;3236;51.022;6.818;2023-03-22T02:06:10;18.27;;;11.05;;
6406;SDS011;3236;51.022;6.818;2023-03-22T02:08:37;20.50;;;11.90;;
6406;SDS011;3236;51.022;6.818;2023-03-22T02:11:06;16.13;;;10.77;;
6406;SDS011;3236;51.022;6.818;2023-03-22T02:13:43;20.50;;;12.23;;
6406;SDS011;3236;51.022;6.818;2023-03-22T02:16:31;16.80;;;11.35;;
6406;SDS011;3236;51.022;6.818;2023-03-22T02:19:12;19.55;;;12.13;;
6406;SDS011;3236;51.022;6.818;2023-03-22T02:22:18;24.75;;;11.75;;
6406;SDS011;3236;51.022;6.818;2023-03-22T02:25:17;17.17;;;11.27;;
6406;SDS011;3236;51.022;6.818;2023-03-22T02:28:16;20.80;;;11.85;;
6406;SDS011;3236;51.022;6.818;2023-03-22T02:30:57;17.00;;;10.95;;
6406;SDS011;3236;51.022;6.818;2023-03-22T02:33:56;19.35;;;11.82;;
6406;SDS011;3236;51.022;6.818;2023-03-22T02:39:40;16.63;;;10.52;;
6406;SDS011;3236;51.022;6.818;2023-03-22T02:45:07;18.23;;;11.35;;
6406;SDS011;3236;51.022;6.818;2023-03-22T02:47:39;18.75;;;10.35;;
6406;SDS011;3236;51.022;6.818;2023-03-22T02:50:10;18.65;;;11.55;;
6406;SDS011;3236;51.022;6.818;2023-03-22T02:52:43;20.63;;;11.85;;
6406;SDS011;3236;51.022;6.818;2023-03-22T02:55:17;19.85;;;11.60;;
6406;SDS011;3236;51.022;6.818;2023-03-22T02:57:49;19.73;;;11.57;;
6406;SDS011;3236;51.022;6.818;2023-03-22T03:00:24;20.80;;;12.32;;
6406;SDS011;3236;51.022;6.818;2023-03-22T03:02:54;19.40;;;11.77;;
6406;SDS011;3236;51.022;6.818;2023-03-22T03:05:35;17.90;;;11.77;;
6406;SDS011;3236;51.022;6.818;2023-03-22T03:08:05;20.70;;;10.63;;
6406;SDS011;3236;51.022;6.818;2023-03-22T03:10:35;19.00;;;8.98;;
6406;SDS011;3236;51.022;6.818;2023-03-22T03:13:03;15.90;;;9.40;;
6406;SDS011;3236;51.022;6.818;2023-03-22T03:15:30;20.23;;;9.95;;
6406;SDS011;3236;51.022;6.818;2023-03-22T03:18:04;18.20;;;9.70;;
6406;SDS011;3236;51.022;6.818;2023-03-22T03:20:55;19.55;;;9.00;;
6406;SDS011;3236;51.022;6.818;2023-03-22T03:23:33;21.60;;;10.30;;
6406;SDS011;3236;51.022;6.818;2023-03-22T03:26:10;19.15;;;10.18;;
6406;SDS011;3236;51.022;6.818;2023-03-22T03:28:44;16.65;;;8.68;;
6406;SDS011;3236;51.022;6.818;2023-03-22T03:31:18;21.13;;;9.68;;
6406;SDS011;3236;51.022;6.818;2023-03-22T03:34:05;16.77;;;8.82;;
6406;SDS011;3236;51.022;6.818;2023-03-22T03:36:41;13.63;;;9.10;;
6406;SDS011;3236;51.022;6.818;2023-03-22T03:42:34;15.05;;;8.85;;
6406;SDS011;3236;51.022;6.818;2023-03-22T03:45:03;19.45;;;9.07;;
6406;SDS011;3236;51.022;6.818;2023-03-22T03:47:32;19.75;;;9.00;;
6406;SDS011;3236;51.022;6.818;2023-03-22T03:50:04;18.27;;;9.63;;
6406;SDS011;3236;51.022;6.818;2023-03-22T03:52:33;17.00;;;9.05;;
6406;SDS011;3236;51.022;6.818;2023-03-22T03:55:00;19.83;;;9.52;;
6406;SDS011;3236;51.022;6.818;2023-03-22T03:57:27;20.75;;;9.73;;
6406;SDS011;3236;51.022;6.818;2023-03-22T03:59:56;18.95;;;9.25;;
6406;SDS011;3236;51.022;6.818;2023-03-22T04:02:23;20.30;;;9.27;;
6406;SDS011;3236;51.022;6.818;2023-03-22T04:04:50;17.70;;;9.55;;
6406;SDS011;3236;51.022;6.818;2023-03-22T04:07:17;17.58;;;9.02;;
6406;SDS011;3236;51.022;6.818;2023-03-22T04:09:45;19.52;;;9.75;;
6406;SDS011;3236;51.022;6.818;2023-03-22T04:12:12;18.80;;;10.90;;
6406;SDS011;3236;51.022;6.818;2023-03-22T04:14:39;17.60;;;10.38;;
6406;SDS011;3236;51.022;6.818;2023-03-22T04:17:11;20.27;;;10.50;;
6406;SDS011;3236;51.022;6.818;2023-03-22T04:19:38;18.48;;;10.20;;
6406;SDS011;3236;51.022;6.818;2023-03-22T04:22:06;20.52;;;9.80;;
6406;SDS011;3236;51.022;6.818;2023-03-22T04:24:38;17.42;;;9.60;;
6406;SDS011;3236;51.022;6.818;2023-03-22T04:27:06;15.70;;;9.15;;
6406;SDS011;3236;51.022;6.818;2023-03-22T04:29:33;19.63;;;9.90;;
6406;SDS011;3236;51.022;6.818;2023-03-22T04:32:00;21.17;;;10.35;;
6406;SDS011;3236;51.022;6.818;2023-03-22T04:34:29;22.35;;;9.77;;
6406;SDS011;3236;51.022;6.818;2023-03-22T04:36:56;20.08;;;9.85;;
6406;SDS011;3236;51.022;6.818;2023-03-22T04:39:26;17.95;;;8.73;;
6406;SDS011;3236;51.022;6.818;2023-03-22T04:41:53;19.85;;;9.40;;
6406;SDS011;3236;51.022;6.818;2023-03-22T04:44:21;15.63;;;9.02;;
6406;SDS011;3236;51.022;6.818;2023-03-22T04:46:48;15.68;;;8.43;;
6406;SDS011;3236;51.022;6.818;2023-03-22T04:49:15;20.30;;;9.40;;
6406;SDS011;3236;51.022;6.818;2023-03-22T04:51:47;17.42;;;9.23;;
6406;SDS011;3236;51.022;6.818;2023-03-22T04:54:14;18.35;;;8.93;;
6406;SDS011;3236;51.022;6.818;2023-03-22T04:56:41;20.08;;;8.40;;
6406;SDS011;3236;51.022;6.818;2023-03-22T04:59:08;20.83;;;9.35;;
6406;SDS011;3236;51.022;6.818;2023-03-22T05:01:35;15.25;;;8.10;;
6406;SDS011;3236;51.022;6.818;2023-03-22T05:04:04;14.95;;;8.93;;
6406;SDS011;3236;51.022;6.818;2023-03-22T05:06:32;18.90;;;10.13;;
6406;SDS011;3236;51.022;6.818;2023-03-22T05:09:04;13.73;;;7.53;;
6406;SDS011;3236;51.022;6.818;2023-03-22T05:11:35;18.15;;;9.30;;
6406;SDS011;3236;51.022;6.818;2023-03-22T05:14:02;17.38;;;9.88;;
6406;SDS011;3236;51.022;6.818;2023-03-22T05:16:30;18.60;;;9.38;;
6406;SDS011;3236;51.022;6.818;2023-03-22T05:18:57;19.00;;;9.15;;
6406;SDS011;3236;51.022;6.818;2023-03-22T05:21:26;21.15;;;9.82;;
6406;SDS011;3236;51.022;6.818;2023-03-22T05:24:01;16.85;;;9.57;;
6406;SDS011;3236;51.022;6.818;2023-03-22T05:26:30;20.23;;;8.35;;
6406;SDS011;3236;51.022;6.818;2023-03-22T05:29:02;15.30;;;9.32;;
6406;SDS011;3236;51.022;6.818;2023-03-22T05:31:29;15.23;;;9.00;;
6406;SDS011;3236;51.022;6.818;2023-03-22T05:34:01;18.30;;;9.45;;
6406;SDS011;3236;51.022;6.818;2023-03-22T05:36:29;19.70;;;9.63;;
6406;SDS011;3236;51.022;6.818;2023-03-22T05:39:02;24.05;;;11.60;;
6406;SDS011;3236;51.022;6.818;2023-03-22T05:41:32;19.15;;;9.55;;
6406;SDS011;3236;51.022;6.818;2023-03-22T05:43:59;16.00;;;9.30;;
6406;SDS011;3236;51.022;6.818;2023-03-22T05:46:27;23.58;;;10.27;;
6406;SDS011;3236;51.022;6.818;2023-03-22T05:48:54;22.73;;;11.23;;
6406;SDS011;3236;51.022;6.818;2023-03-22T05:51:21;23.95;;;11.35;;
6406;SDS011;3236;51.022;6.818;2023-03-22T05:53:50;17.58;;;11.35;;
6406;SDS011;3236;51.022;6.818;2023-03-22T05:56:18;17.02;;;10.00;;
6406;SDS011;3236;51.022;6.818;2023-03-22T05:58:49;22.85;;;11.70;;
6406;SDS011;3236;51.022;6.818;2023-03-22T06:01:17;18.73;;;11.30;;
6406;SDS011;3236;51.022;6.818;2023-03-22T06:03:44;22.75;;;11.07;;
6406;SDS011;3236;51.022;6.818;2023-03-22T06:06:12;19.42;;;11.00;;
6406;SDS011;3236;51.022;6.818;2023-03-22T06:08:42;19.15;;;9.90;;
6406;SDS011;3236;51.022;6.818;2023-03-22T06:11:09;22.20;;;11.05;;
6406;SDS011;3236;51.022;6.818;2023-03-22T06:13:37;16.73;;;9.80;;
6406;SDS011;3236;51.022;6.818;2023-03-22T06:16:05;15.98;;;10.13;;
6406;SDS011;3236;51.022;6.818;2023-03-22T06:18:33;15.73;;;9.15;;
6406;SDS011;3236;51.022;6.818;2023-03-22T06:21:00;16.63;;;8.80;;
6406;SDS011;3236;51.022;6.818;2023-03-22T06:23:27;23.40;;;9.13;;
6406;SDS011;3236;51.022;6.818;2023-03-22T06:25:55;14.45;;;8.27;;
6406;SDS011;3236;51.022;6.818;2023-03-22T06:28:22;16.50;;;9.10;;
6406;SDS011;3236;51.022;6.818;2023-03-22T06:30:53;14.23;;;8.40;;
6406;SDS011;3236;51.022;6.818;2023-03-22T06:33:22;12.85;;;7.95;;
6406;SDS011;3236;51.022;6.818;2023-03-22T06:35:50;14.98;;;7.90;;
6406;SDS011;3236;51.022;6.818;2023-03-22T06:38:18;14.45;;;7.93;;
6406;SDS011;3236;51.022;6.818;2023-03-22T06:40:48;16.30;;;7.95;;
6406;SDS011;3236;51.022;6.818;2023-03-22T06:43:15;18.77;;;7.55;;
6406;SDS011;3236;51.022;6.818;2023-03-22T06:45:45;16.70;;;8.02;;
6406;SDS011;3236;51.022;6.818;2023-03-22T06:48:12;18.17;;;8.50;;
6406;SDS011;3236;51.022;6.818;2023-03-22T06:50:40;13.45;;;7.32;;
6406;SDS011;3236;51.022;6.818;2023-03-22T06:53:09;16.55;;;7.32;;
6406;SDS011;3236;51.022;6.818;2023-03-22T06:55:36;15.60;;;7.15;;
6406;SDS011;3236;51.022;6.818;2023-03-22T06:58:04;9.23;;;6.50;;
6406;SDS011;3236;51.022;6.818;2023-03-22T07:00:32;12.23;;;5.97;;
6406;SDS011;3236;51.022;6.818;2023-03-22T07:02:59;9.85;;;6.15;;
6406;SDS011;3236;51.022;6.818;2023-03-22T07:05:42;15.80;;;6.18;;
6406;SDS011;3236;51.022;6.818;2023-03-22T07:08:09;12.98;;;6.03;;
6406;SDS011;3236;51.022;6.818;2023-03-22T07:10:40;16.65;;;6.07;;
6406;SDS011;3236;51.022;6.818;2023-03-22T07:13:07;12.25;;;5.82;;
6406;SDS011;3236;51.022;6.818;2023-03-22T07:15:36;13.35;;;5.65;;
6406;SDS011;3236;51.022;6.818;2023-03-22T07:18:05;13.23;;;5.70;;
6406;SDS011;3236;51.022;6.818;2023-03-22T07:20:33;9.00;;;4.78;;
6406;SDS011;3236;51.022;6.818;2023-03-22T07:23:03;12.98;;;4.95;;
6406;SDS011;3236;51.022;6.818;2023-03-22T07:25:30;9.93;;;4.95;;
6406;SDS011;3236;51.022;6.818;2023-03-22T07:28:01;9.90;;;4.60;;
6406;SDS011;3236;51.022;6.818;2023-03-22T07:30:31;10.00;;;4.40;;
6406;SDS011;3236;51.022;6.818;2023-03-22T07:33:02;12.57;;;4.68;;
6406;SDS011;3236;51.022;6.818;2023-03-22T07:35:33;11.27;;;4.53;;
6406;SDS011;3236;51.022;6.818;2023-03-22T07:38:03;5.07;;;3.58;;
6406;SDS011;3236;51.022;6.818;2023-03-22T07:40:31;8.40;;;3.28;;
6406;SDS011;3236;51.022;6.818;2023-03-22T07:43:01;11.07;;;3.83;;
6406;SDS011;3236;51.022;6.818;2023-03-22T07:45:28;7.88;;;3.70;;
6406;SDS011;3236;51.022;6.818;2023-03-22T07:47:55;13.10;;;3.80;;
6406;SDS011;3236;51.022;6.818;2023-03-22T07:50:23;8.90;;;3.38;;
6406;SDS011;3236;51.022;6.818;2023-03-22T07:52:50;7.30;;;3.50;;
6406;SDS011;3236;51.022;6.818;2023-03-22T07:55:18;14.52;;;3.67;;
6406;SDS011;3236;51.022;6.818;2023-03-22T07:57:48;13.43;;;3.80;;
6406;SDS011;3236;51.022;6.818;2023-03-22T08:00:18;7.93;;;3.17;;
6406;SDS011;3236;51.022;6.818;2023-03-22T08:02:45;5.55;;;3.20;;
6406;SDS011;3236;51.022;6.818;2023-03-22T08:05:13;9.48;;;2.90;;
6406;SDS011;3236;51.022;6.818;2023-03-22T08:07:40;7.03;;;3.22;;
6406;SDS011;3236;51.022;6.818;2023-03-22T08:10:10;7.88;;;1.80;;
6406;SDS011;3236;51.022;6.818;2023-03-22T08:12:39;5.28;;;1.63;;
6406;SDS011;3236;51.022;6.818;2023-03-22T08:15:07;4.38;;;1.23;;
6406;SDS011;3236;51.022;6.818;2023-03-22T08:17:35;3.80;;;1.60;;
6406;SDS011;3236;51.022;6.818;2023-03-22T08:20:03;3.85;;;1.10;;
6406;SDS011;3236;51.022;6.818;2023-03-22T08:22:33;3.10;;;1.35;;
6406;SDS011;3236;51.022;6.818;2023-03-22T08:25:03;11.52;;;1.05;;
6406;SDS011;3236;51.022;6.818;2023-03-22T08:27:31;1.20;;;0.80;;
6406;SDS011;3236;51.022;6.818;2023-03-22T08:29:59;1.98;;;0.98;;
6406;SDS011;3236;51.022;6.818;2023-03-22T08:32:27;2.20;;;0.90;;
6406;SDS011;3236;51.022;6.818;2023-03-22T08:34:54;1.80;;;1.00;;
6406;SDS011;3236;51.022;6.818;2023-03-22T08:37:22;7.18;;;0.90;;
6406;SDS011;3236;51.022;6.818;2023-03-22T08:39:49;2.72;;;0.88;;
6406;SDS011;3236;51.022;6.818;2023-03-22T08:42:16;4.78;;;0.75;;
6406;SDS011;3236;51.022;6.818;2023-03-22T08:44:43;3.45;;;0.77;;
6406;SDS011;3236;51.022;6.818;2023-03-22T08:47:12;1.98;;;0.80;;
6406;SDS011;3236;51.022;6.818;2023-03-22T08:49:41;7.40;;;1.10;;
6406;SDS011;3236;51.022;6.818;2023-03-22T08:52:08;2.58;;;0.55;;
6406;SDS011;3236;51.022;6.818;2023-03-22T08:54:41;4.15;;;0.85;;
6406;SDS011;3236;51.022;6.818;2023-03-22T08:57:09;2.88;;;0.80;;
6406;SDS011;3236;51.022;6.818;2023-03-22T08:59:43;2.38;;;0.80;;
6406;SDS011;3236;51.022;6.818;2023-03-22T09:02:10;4.95;;;0.88;;
6406;SDS011;3236;51.022;6.818;2023-03-22T09:04:39;1.58;;;0.80;;
6406;SDS011;3236;51.022;6.818;2023-03-22T09:07:06;4.35;;;1.20;;
6406;SDS011;3236;51.022;6.818;2023-03-22T09:09:34;2.75;;;1.00;;
6406;SDS011;3236;51.022;6.818;2023-03-22T09:12:01;3.50;;;1.08;;
6406;SDS011;3236;51.022;6.818;2023-03-22T09:14:32;3.60;;;0.80;;
6406;SDS011;3236;51.022;6.818;2023-03-22T09:16:59;2.50;;;1.15;;
6406;SDS011;3236;51.022;6.818;2023-03-22T09:19:28;3.05;;;0.70;;
6406;SDS011;3236;51.022;6.818;2023-03-22T09:21:58;2.20;;;0.85;;
6406;SDS011;3236;51.022;6.818;2023-03-22T09:24:29;1.52;;;0.73;;
6406;SDS011;3236;51.022;6.818;2023-03-22T09:26:56;4.82;;;1.40;;
6406;SDS011;3236;51.022;6.818;2023-03-22T09:29:23;1.27;;;0.80;;
6406;SDS011;3236;51.022;6.818;2023-03-22T09:31:50;1.77;;;0.95;;
6406;SDS011;3236;51.022;6.818;2023-03-22T09:34:17;2.17;;;0.80;;
6406;SDS011;3236;51.022;6.818;2023-03-22T09:36:46;3.38;;;0.70;;
6406;SDS011;3236;51.022;6.818;2023-03-22T09:39:13;1.50;;;0.85;;
6406;SDS011;3236;51.022;6.818;2023-03-22T09:41:43;1.73;;;0.73;;
6406;SDS011;3236;51.022;6.818;2023-03-22T09:44:20;1.08;;;0.75;;
6406;SDS011;3236;51.022;6.818;2023-03-22T09:46:53;3.30;;;1.00;;
6406;SDS011;3236;51.022;6.818;2023-03-22T09:49:25;2.60;;;0.98;;
6406;SDS011;3236;51.022;6.818;2023-03-22T09:52:01;2.47;;;0.80;;
6406;SDS011;3236;51.022;6.818;2023-03-22T09:54:31;3.10;;;0.93;;
6406;SDS011;3236;51.022;6.818;2023-03-22T09:57:03;1.10;;;0.52;;
6406;SDS011;3236;51.022;6.818;2023-03-22T09:59:34;7.68;;;2.47;;
6406;SDS011;3236;51.022;6.818;2023-03-22T10:02:18;4.07;;;1.10;;
6406;SDS011;3236;51.022;6.818;2023-03-22T10:05:01;2.38;;;0.93;;
6406;SDS011;3236;51.022;6.818;2023-03-22T10:07:40;3.05;;;0.90;;
6406;SDS011;3236;51.022;6.818;2023-03-22T10:10:23;5.35;;;0.93;;
6406;SDS011;3236;51.022;6.818;2023-03-22T10:12:54;3.83;;;1.08;;
6406;SDS011;3236;51.022;6.818;2023-03-22T10:15:26;0.98;;;0.82;;
6406;SDS011;3236;51.022;6.818;2023-03-22T10:17:57;7.03;;;1.20;;
6406;SDS011;3236;51.022;6.818;2023-03-22T10:20:29;2.53;;;0.82;;
6406;SDS011;3236;51.022;6.818;2023-03-22T10:23:04;3.40;;;1.27;;
6406;SDS011;3236;51.022;6.818;2023-03-22T10:25:38;4.10;;;1.10;;
6406;SDS011;3236;51.022;6.818;2023-03-22T10:28:14;3.53;;;1.20;;
6406;SDS011;3236;51.022;6.818;2023-03-22T10:30:49;4.05;;;1.00;;
6406;SDS011;3236;51.022;6.818;2023-03-22T10:33:26;9.20;;;1.00;;
6406;SDS011;3236;51.022;6.818;2023-03-22T10:35:59;1.92;;;0.95;;
6406;SDS011;3236;51.022;6.818;2023-03-22T10:38:30;5.10;;;1.15;;
6406;SDS011;3236;51.022;6.818;2023-03-22T10:40:59;2.15;;;0.70;;
6406;SDS011;3236;51.022;6.818;2023-03-22T10:43:29;8.07;;;0.88;;
6406;SDS011;3236;51.022;6.818;2023-03-22T10:46:01;2.63;;;1.15;;
6406;SDS011;3236;51.022;6.818;2023-03-22T10:48:32;6.00;;;1.85;;
6406;SDS011;3236;51.022;6.818;2023-03-22T10:51:04;4.13;;;1.77;;
6406;SDS011;3236;51.022;6.818;2023-03-22T10:53:35;8.27;;;1.05;;
6406;SDS011;3236;51.022;6.818;2023-03-22T10:56:11;2.13;;;1.20;;
6406;SDS011;3236;51.022;6.818;2023-03-22T10:58:40;4.07;;;0.90;;
6406;SDS011;3236;51.022;6.818;2023-03-22T11:01:12;5.83;;;1.30;;
6406;SDS011;3236;51.022;6.818;2023-03-22T11:03:43;4.45;;;1.25;;
6406;SDS011;3236;51.022;6.818;2023-03-22T11:06:17;1.92;;;0.98;;
6406;SDS011;3236;51.022;6.818;2023-03-22T11:08:50;4.32;;;1.45;;
6406;SDS011;3236;51.022;6.818;2023-03-22T11:11:19;5.57;;;0.95;;
6406;SDS011;3236;51.022;6.818;2023-03-22T11:13:53;5.05;;;0.93;;
6406;SDS011;3236;51.022;6.818;2023-03-22T11:16:22;3.95;;;1.05;;
6406;SDS011;3236;51.022;6.818;2023-03-22T11:18:53;2.67;;;0.93;;
6406;SDS011;3236;51.022;6.818;2023-03-22T11:21:24;8.97;;;0.90;;
6406;SDS011;3236;51.022;6.818;2023-03-22T11:23:58;1.48;;;0.90;;
6406;SDS011;3236;51.022;6.818;2023-03-22T11:26:31;3.67;;;1.20;;
6406;SDS011;3236;51.022;6.818;2023-03-22T11:29:09;3.78;;;1.05;;
6406;SDS011;3236;51.022;6.818;2023-03-22T11:31:49;2.05;;;1.00;;
6406;SDS011;3236;51.022;6.818;2023-03-22T11:34:22;2.05;;;0.90;;
6406;SDS011;3236;51.022;6.818;2023-03-22T11:36:50;1.27;;;0.77;;
6406;SDS011;3236;51.022;6.818;2023-03-22T11:39:22;1.30;;;0.93;;
6406;SDS011;3236;51.022;6.818;2023-03-22T11:41:53;4.28;;;1.00;;
6406;SDS011;3236;51.022;6.818;2023-03-22T11:44:26;6.05;;;0.98;;
6406;SDS011;3236;51.022;6.818;2023-03-22T11:46:54;2.13;;;1.10;;
6406;SDS011;3236;51.022;6.818;2023-03-22T11:49:26;4.03;;;0.98;;
6406;SDS011;3236;51.022;6.818;2023-03-22T11:52:05;3.13;;;1.50;;
6406;SDS011;3236;51.022;6.818;2023-03-22T11:54:35;3.92;;;1.33;;
6406;SDS011;3236;51.022;6.818;2023-03-22T11:57:09;3.80;;;1.30;;
6406;SDS011;3236;51.022;6.818;2023-03-22T11:59:47;3.92;;;1.00;;
6406;SDS011;3236;51.022;6.818;2023-03-22T12:02:22;3.28;;;1.20;;
6406;SDS011;3236;51.022;6.818;2023-03-22T12:04:56;4.03;;;1.52;;
6406;SDS011;3236;51.022;6.818;2023-03-22T12:07:28;3.50;;;1.48;;
6406;SDS011;3236;51.022;6.818;2023-03-22T12:10:00;7.13;;;1.00;;
6406;SDS011;3236;51.022;6.818;2023-03-22T12:12:33;2.67;;;1.17;;
6406;SDS011;3236;51.022;6.818;2023-03-22T12:15:10;2.97;;;0.90;;
6406;SDS011;3236;51.022;6.818;2023-03-22T12:17:40;1.67;;;1.15;;
6406;SDS011;3236;51.022;6.818;2023-03-22T12:20:13;5.07;;;1.25;;
6406;SDS011;3236;51.022;6.818;2023-03-22T12:22:47;3.47;;;1.20;;
6406;SDS011;3236;51.022;6.818;2023-03-22T12:25:20;1.20;;;0.85;;
6406;SDS011;3236;51.022;6.818;2023-03-22T12:27:50;7.10;;;2.10;;
6406;SDS011;3236;51.022;6.818;2023-03-22T12:30:20;2.55;;;1.17;;
6406;SDS011;3236;51.022;6.818;2023-03-22T12:32:51;5.53;;;1.17;;
6406;SDS011;3236;51.022;6.818;2023-03-22T12:35:24;4.82;;;1.13;;
6406;SDS011;3236;51.022;6.818;2023-03-22T12:37:55;1.58;;;1.08;;
6406;SDS011;3236;51.022;6.818;2023-03-22T12:40:26;4.18;;;1.30;;
6406;SDS011;3236;51.022;6.818;2023-03-22T12:42:58;4.82;;;1.08;;
6406;SDS011;3236;51.022;6.818;2023-03-22T12:45:28;4.10;;;1.15;;
6406;SDS011;3236;51.022;6.818;2023-03-22T12:47:59;3.15;;;1.00;;
6406;SDS011;3236;51.022;6.818;2023-03-22T12:50:33;4.28;;;1.48;;
6406;SDS011;3236;51.022;6.818;2023-03-22T12:53:02;3.03;;;1.25;;
6406;SDS011;3236;51.022;6.818;2023-03-22T12:55:32;2.72;;;0.98;;
6406;SDS011;3236;51.022;6.818;2023-03-22T12:58:04;5.50;;;1.05;;
6406;SDS011;3236;51.022;6.818;2023-03-22T13:00:32;1.63;;;0.90;;
6406;SDS011;3236;51.022;6.818;2023-03-22T13:03:15;7.93;;;1.40;;
6406;SDS011;3236;51.022;6.818;2023-03-22T13:05:58;2.42;;;1.23;;
6406;SDS011;3236;51.022;6.818;2023-03-22T13:11:40;2.40;;;1.15;;
6406;SDS011;3236;51.022;6.818;2023-03-22T13:14:10;4.05;;;1.38;;
6406;SDS011;3236;51.022;6.818;2023-03-22T13:16:47;7.82;;;1.50;;
6406;SDS011;3236;51.022;6.818;2023-03-22T13:19:26;4.53;;;1.30;;
6406;SDS011;3236;51.022;6.818;2023-03-22T13:22:11;6.43;;;1.10;;
6406;SDS011;3236;51.022;6.818;2023-03-22T13:27:36;4.15;;;1.55;;
6406;SDS011;3236;51.022;6.818;2023-03-22T13:30:13;3.42;;;1.30;;
6406;SDS011;3236;51.022;6.818;2023-03-22T13:32:47;5.07;;;1.88;;
6406;SDS011;3236;51.022;6.818;2023-03-22T13:35:24;5.50;;;1.88;;
6406;SDS011;3236;51.022;6.818;2023-03-22T13:37:54;5.72;;;1.58;;
6406;SDS011;3236;51.022;6.818;2023-03-22T13:40:32;4.35;;;1.52;;
6406;SDS011;3236;51.022;6.818;2023-03-22T13:43:18;7.43;;;1.80;;
6406;SDS011;3236;51.022;6.818;2023-03-22T13:45:56;2.97;;;1.37;;
6406;SDS011;3236;51.022;6.818;2023-03-22T13:48:52;5.32;;;1.40;;
6406;SDS011;3236;51.022;6.818;2023-03-22T13:51:38;4.15;;;1.40;;
6406;SDS011;3236;51.022;6.818;2023-03-22T13:54:08;6.28;;;1.20;;
6406;SDS011;3236;51.022;6.818;2023-03-22T13:56:52;4.47;;;1.50;;
6406;SDS011;3236;51.022;6.818;2023-03-22T13:59:56;4.93;;;1.27;;
6406;SDS011;3236;51.022;6.818;2023-03-22T14:02:26;3.95;;;1.30;;
6406;SDS011;3236;51.022;6.818;2023-03-22T14:05:00;3.25;;;1.10;;
6406;SDS011;3236;51.022;6.818;2023-03-22T14:07:42;2.97;;;1.00;;
6406;SDS011;3236;51.022;6.818;2023-03-22T14:10:13;4.88;;;1.10;;
6406;SDS011;3236;51.022;6.818;2023-03-22T14:12:46;5.25;;;1.17;;
6406;SDS011;3236;51.022;6.818;2023-03-22T14:15:21;2.08;;;1.38;;
6406;SDS011;3236;51.022;6.818;2023-03-22T14:17:52;3.25;;;1.58;;
6406;SDS011;3236;51.022;6.818;2023-03-22T14:20:23;5.18;;;1.38;;
6406;SDS011;3236;51.022;6.818;2023-03-22T14:22:56;5.50;;;1.02;;
6406;SDS011;3236;51.022;6.818;2023-03-22T14:25:26;3.05;;;1.15;;
6406;SDS011;3236;51.022;6.818;2023-03-22T14:27:57;5.00;;;1.15;;
6406;SDS011;3236;51.022;6.818;2023-03-22T14:30:33;6.53;;;1.30;;
6406;SDS011;3236;51.022;6.818;2023-03-22T14:33:03;5.40;;;1.23;;
6406;SDS011;3236;51.022;6.818;2023-03-22T14:35:36;6.10;;;1.10;;
6406;SDS011;3236;51.022;6.818;2023-03-22T14:38:11;4.95;;;1.10;;
6406;SDS011;3236;51.022;6.818;2023-03-22T14:40:41;3.38;;;1.40;;
6406;SDS011;3236;51.022;6.818;2023-03-22T14:43:12;5.40;;;1.30;;
6406;SDS011;3236;51.022;6.818;2023-03-22T14:45:42;3.80;;;0.90;;
6406;SDS011;3236;51.022;6.818;2023-03-22T14:48:13;4.45;;;1.58;;
6406;SDS011;3236;51.022;6.818;2023-03-22T14:50:46;4.30;;;1.05;;
6406;SDS011;3236;51.022;6.818;2023-03-22T14:53:15;3.58;;;0.90;;
6406;SDS011;3236;51.022;6.818;2023-03-22T14:55:46;3.72;;;1.00;;
6406;SDS011;3236;51.022;6.818;2023-03-22T14:58:15;4.32;;;1.13;;
6406;SDS011;3236;51.022;6.818;2023-03-22T15:00:46;3.20;;;1.13;;
6406;SDS011;3236;51.022;6.818;2023-03-22T15:03:14;6.40;;;1.02;;
6406;SDS011;3236;51.022;6.818;2023-03-22T15:05:49;5.35;;;1.25;;
6406;SDS011;3236;51.022;6.818;2023-03-22T15:08:23;4.93;;;1.15;;
6406;SDS011;3236;51.022;6.818;2023-03-22T15:10:52;2.50;;;0.90;;
6406;SDS011;3236;51.022;6.818;2023-03-22T15:13:22;3.87;;;1.00;;
6406;SDS011;3236;51.022;6.818;2023-03-22T15:15:52;8.27;;;1.38;;
6406;SDS011;3236;51.022;6.818;2023-03-22T15:18:20;4.00;;;1.20;;
6406;SDS011;3236;51.022;6.818;2023-03-22T15:20:52;1.92;;;1.10;;
6406;SDS011;3236;51.022;6.818;2023-03-22T15:23:21;2.58;;;0.85;;
6406;SDS011;3236;51.022;6.818;2023-03-22T15:25:55;5.28;;;1.40;;
6406;SDS011;3236;51.022;6.818;2023-03-22T15:28:25;4.78;;;1.33;;
6406;SDS011;3236;51.022;6.818;2023-03-22T15:30:56;3.42;;;1.23;;
6406;SDS011;3236;51.022;6.818;2023-03-22T15:33:29;4.28;;;1.10;;
6406;SDS011;3236;51.022;6.818;2023-03-22T15:35:59;1.27;;;1.00;;
6406;SDS011;3236;51.022;6.818;2023-03-22T15:38:28;1.80;;;0.93;;
6406;SDS011;3236;51.022;6.818;2023-03-22T15:41:01;4.60;;;1.25;;
6406;SDS011;3236;51.022;6.818;2023-03-22T15:43:32;3.53;;;1.13;;
6406;SDS011;3236;51.022;6.818;2023-03-22T15:46:15;2.30;;;0.82;;
6406;SDS011;3236;51.022;6.818;2023-03-22T15:48:44;3.08;;;1.42;;